Time;durP1;ratioP1;P1;durP2;ratioP2;P2;SDS_P1;SDS_P2;PMS_P1;PMS_P2;Temp;Humidity;BMP_temperature;BMP_pressure;BME280_temperature;BME280_humidity;BME280_pressure;Samples;Min_cycle;Max_cycle;Signal;HPM_P1;HPM_P2
2021/10/17 00:01:26;;;;;;;29.80;19.60;;;;;;;10.03;67.53;100980.84;116723;1192;23455;-75
2021/10/17 00:03:55;;;;;;;31.50;21.40;;;;;;;10.03;67.38;100976.94;116789;1187;21970;-75
2021/10/17 00:06:28;;;;;;;35.50;21.70;;;;;;;10.03;67.59;100979.02;116747;1188;21981;-75
2021/10/17 00:08:58;;;;;;;29.10;19.70;;;;;;;10.04;67.70;100976.84;116456;1190;21891;-75
2021/10/17 00:11:27;;;;;;;29.00;18.80;;;;;;;10.05;67.73;100977.14;116391;1194;22318;-75
2021/10/17 00:13:56;;;;;;;30.80;18.10;;;;;;;10.04;67.64;100976.98;116438;1192;21901;-75
2021/10/17 00:16:25;;;;;;;33.90;20.50;;;;;;;10.04;67.60;100976.52;116745;1192;22439;-75
2021/10/17 00:18:56;;;;;;;30.00;18.80;;;;;;;10.05;67.74;100981.17;116763;1191;22930;-75
2021/10/17 00:21:25;;;;;;;32.30;19.90;;;;;;;10.05;67.64;100985.04;116741;1192;22620;-75
2021/10/17 00:23:57;;;;;;;31.80;19.90;;;;;;;10.04;67.76;100985.80;116718;1190;21891;-75
2021/10/17 00:26:27;;;;;;;34.10;20.80;;;;;;;10.02;67.71;100985.96;116593;1189;21925;-75
2021/10/17 00:28:56;;;;;;;30.90;20.30;;;;;;;9.99;67.72;100985.43;116885;1189;21895;-75
2021/10/17 00:31:26;;;;;;;35.00;21.60;;;;;;;9.95;67.59;100984.05;116921;1189;21896;-76
2021/10/17 00:33:55;;;;;;;38.00;21.40;;;;;;;9.91;67.56;100985.29;116817;1187;21900;-76
2021/10/17 00:36:27;;;;;;;31.90;19.70;;;;;;;9.89;67.70;100983.88;116777;1189;22958;-75
2021/10/17 00:38:56;;;;;;;30.00;20.40;;;;;;;9.89;67.78;100987.21;116839;1187;21869;-76
2021/10/17 00:41:29;;;;;;;31.90;22.00;;;;;;;9.91;67.99;100986.04;116810;1189;21931;-76
2021/10/17 00:44:01;;;;;;;33.40;20.20;;;;;;;9.92;67.94;100981.20;117016;1189;21911;-75
2021/10/17 00:46:31;;;;;;;30.60;20.30;;;;;;;9.92;67.88;100979.98;116973;1189;22907;-75
2021/10/17 00:49:01;;;;;;;30.10;19.60;;;;;;;9.92;67.96;100979.56;116797;1187;23460;-75
2021/10/17 00:51:30;;;;;;;33.50;20.30;;;;;;;9.93;67.94;100975.83;117007;1188;22362;-75
2021/10/17 00:53:59;;;;;;;27.20;17.10;;;;;;;9.92;67.90;100973.59;116831;1187;21905;-75
2021/10/17 00:56:28;;;;;;;29.00;18.40;;;;;;;9.92;68.02;100972.39;116728;1188;23627;-75
2021/10/17 00:58:57;;;;;;;32.10;18.70;;;;;;;9.93;68.03;100971.55;116660;1190;24136;-75
2021/10/17 01:01:26;;;;;;;31.00;17.70;;;;;;;9.93;68.04;100967.33;116713;1192;21930;-76
2021/10/17 01:03:55;;;;;;;23.90;16.90;;;;;;;9.93;67.95;100965.77;116759;1192;23557;-75
2021/10/17 01:06:24;;;;;;;29.10;18.80;;;;;;;9.93;67.95;100961.36;116649;1192;21909;-76
2021/10/17 01:08:54;;;;;;;27.70;17.80;;;;;;;9.93;68.05;100957.00;116759;1192;21880;-75
2021/10/17 01:11:23;;;;;;;27.90;16.90;;;;;;;9.92;68.16;100958.31;116750;1190;23468;-76
2021/10/17 01:13:53;;;;;;;26.30;17.80;;;;;;;9.89;68.13;100955.43;116780;1189;21905;-75
2021/10/17 01:16:22;;;;;;;24.40;16.40;;;;;;;9.87;68.20;100958.02;116979;1189;21894;-74
2021/10/17 01:18:54;;;;;;;25.70;16.10;;;;;;;9.85;68.16;100954.73;116856;1189;23546;-75
2021/10/17 01:21:24;;;;;;;28.80;16.70;;;;;;;9.83;68.18;100954.02;116797;1191;21943;-75
2021/10/17 01:23:54;;;;;;;28.10;17.70;;;;;;;9.82;68.08;100949.93;116783;1191;22921;-76
2021/10/17 01:26:24;;;;;;;29.80;18.60;;;;;;;9.80;67.92;100946.83;116453;1192;21908;-75
2021/10/17 01:28:53;;;;;;;29.70;17.80;;;;;;;9.77;67.94;100948.50;116494;1194;22200;-76
2021/10/17 01:31:50;;;;;;;29.30;17.10;;;;;;;9.75;68.16;100945.15;116486;1194;22907;-76
2021/10/17 01:34:21;;;;;;;29.60;17.00;;;;;;;9.73;68.46;100945.73;116462;1194;21904;-76
2021/10/17 01:36:53;;;;;;;28.00;17.70;;;;;;;9.73;68.54;100942.04;116224;1197;21993;-76
2021/10/17 01:39:24;;;;;;;30.10;17.70;;;;;;;9.73;68.59;100938.17;116257;1195;21892;-76
2021/10/17 01:41:53;;;;;;;23.80;15.60;;;;;;;9.73;68.69;100936.95;116202;1197;21918;-76
2021/10/17 01:44:30;;;;;;;26.20;16.80;;;;;;;9.73;68.71;100935.34;116276;1193;21923;-76
2021/10/17 01:47:01;;;;;;;21.80;14.40;;;;;;;9.73;68.64;100928.77;116526;1193;21881;-76
2021/10/17 01:49:32;;;;;;;25.00;15.00;;;;;;;9.73;68.71;100928.98;116453;1194;22983;-76
2021/10/17 01:52:06;;;;;;;25.80;15.40;;;;;;;9.75;68.97;100927.05;116486;1193;21928;-76
2021/10/17 01:54:39;;;;;;;23.90;14.60;;;;;;;9.76;68.77;100927.14;116547;1191;23629;-76
2021/10/17 01:57:11;;;;;;;24.70;14.40;;;;;;;9.76;68.83;100919.88;116780;1191;22615;-76
2021/10/17 01:59:40;;;;;;;25.50;14.00;;;;;;;9.76;68.75;100920.04;116824;1189;21960;-76
2021/10/17 02:02:15;;;;;;;21.70;14.00;;;;;;;9.74;68.53;100920.87;116708;1191;21978;-76
2021/10/17 02:04:46;;;;;;;23.90;13.60;;;;;;;9.73;68.67;100920.07;116753;1190;21892;-76
2021/10/17 02:07:15;;;;;;;22.80;14.40;;;;;;;9.74;68.83;100915.23;116503;1190;21896;-76
2021/10/17 02:09:44;;;;;;;24.10;15.00;;;;;;;9.75;68.81;100916.64;116474;1190;23564;-75
2021/10/17 02:12:15;;;;;;;20.80;14.30;;;;;;;9.76;68.72;100915.48;116444;1190;21887;-75
2021/10/17 02:14:45;;;;;;;;;;;;;;;9.77;68.70;100919.23;116535;1194;23455;-76
2021/10/17 02:17:14;;;;;;;26.40;14.70;;;;;;;9.71;68.78;100917.55;116474;1194;22843;-76
2021/10/17 02:19:43;;;;;;;23.40;14.30;;;;;;;9.70;68.76;100911.54;116517;1190;23622;-77
2021/10/17 02:22:13;;;;;;;22.90;13.50;;;;;;;9.72;68.85;100909.02;116414;1195;23546;-76
2021/10/17 02:24:42;;;;;;;24.60;14.90;;;;;;;9.74;68.91;100906.37;116459;1192;22879;-76
2021/10/17 02:27:12;;;;;;;21.40;13.80;;;;;;;9.76;68.75;100909.55;116468;1192;21902;-76
2021/10/17 02:29:45;;;;;;;23.40;13.40;;;;;;;9.77;68.74;100907.45;116699;1189;22592;-76
2021/10/17 02:32:22;;;;;;;32.40;14.50;;;;;;;9.78;68.81;100909.84;116700;1192;23540;-75
2021/10/17 02:34:57;;;;;;;18.90;12.60;;;;;;;9.81;68.78;100909.44;116712;1192;21917;-77
2021/10/17 02:37:31;;;;;;;21.20;14.30;;;;;;;9.82;68.90;100908.56;116691;1192;21896;-76
2021/10/17 02:40:00;;;;;;;25.50;14.80;;;;;;;9.84;68.86;100900.46;116791;1189;21886;-76
2021/10/17 02:42:30;;;;;;;25.50;15.00;;;;;;;9.86;68.83;100899.95;117009;1189;21890;-75
2021/10/17 02:44:59;;;;;;;24.40;14.10;;;;;;;9.88;68.91;100898.80;116730;1192;23546;-75
2021/10/17 02:47:28;;;;;;;22.30;13.80;;;;;;;9.90;68.76;100899.15;116789;1191;22909;-75
2021/10/17 02:49:57;;;;;;;20.00;13.30;;;;;;;9.90;68.67;100897.23;116819;1191;21905;-76
2021/10/17 02:52:28;;;;;;;22.30;12.70;;;;;;;9.90;68.67;100894.30;116743;1191;23429;-76
2021/10/17 02:54:57;;;;;;;20.90;12.60;;;;;;;9.91;68.60;100897.52;116691;1190;24790;-76
2021/10/17 02:57:27;;;;;;;20.90;12.60;;;;;;;9.92;68.53;100900.45;116371;1194;21907;-76
2021/10/17 02:59:56;;;;;;;24.30;14.30;;;;;;;9.93;68.49;100904.67;116178;1193;21895;-75
2021/10/17 03:02:25;;;;;;;21.20;12.90;;;;;;;9.93;68.42;100905.23;116211;1195;22830;-76
2021/10/17 03:04:54;;;;;;;19.30;13.70;;;;;;;9.94;68.58;100904.23;116429;1195;22895;-75
2021/10/17 03:07:24;;;;;;;18.60;12.80;;;;;;;9.96;68.54;100900.92;116339;1195;21891;-75
2021/10/17 03:10:02;;;;;;;20.70;13.70;;;;;;;9.96;68.46;100899.52;116188;1196;21930;-75
2021/10/17 03:12:31;;;;;;;20.50;14.20;;;;;;;9.95;68.49;100900.81;116037;1198;22154;-74
2021/10/17 03:15:06;;;;;;;21.40;13.50;;;;;;;9.94;68.39;100899.77;116058;1186;22939;-75
2021/10/17 03:17:36;;;;;;;22.00;12.90;;;;;;;9.91;68.37;100901.23;116267;1192;23484;-75
2021/10/17 03:20:06;;;;;;;20.90;13.80;;;;;;;9.88;68.37;100904.11;116746;1180;21898;-76
2021/10/17 03:22:39;;;;;;;23.40;13.90;;;;;;;9.85;68.21;100899.81;116735;1192;22846;-75
2021/10/17 03:25:09;;;;;;;23.10;15.00;;;;;;;9.84;68.27;100900.44;116760;1192;21907;-75
2021/10/17 03:27:39;;;;;;;23.90;17.00;;;;;;;9.85;68.27;100897.41;116597;1189;23465;-76
2021/10/17 03:30:13;;;;;;;24.10;13.60;;;;;;;9.85;68.26;100901.58;117013;1186;22005;-75
2021/10/17 03:32:42;;;;;;;;;;;;;;;9.85;68.25;100901.77;117059;1188;21942;-76
2021/10/17 03:35:11;;;;;;;16.80;11.50;;;;;;;9.79;68.43;100899.04;117009;1187;22881;-76
2021/10/17 03:37:40;;;;;;;18.40;13.10;;;;;;;9.78;68.38;100894.54;116990;1187;22642;-76
2021/10/17 03:40:10;;;;;;;20.10;13.50;;;;;;;9.79;68.31;100892.87;116971;1188;23494;-76
2021/10/17 03:42:39;;;;;;;17.10;12.60;;;;;;;9.78;68.00;100889.39;116978;1189;21908;-76
2021/10/17 03:45:08;;;;;;;21.20;12.10;;;;;;;9.77;68.02;100897.96;116850;1189;21878;-76
2021/10/17 03:47:38;;;;;;;20.60;11.50;;;;;;;9.78;68.11;100900.49;117017;1186;23464;-76
2021/10/17 03:50:08;;;;;;;19.50;12.90;;;;;;;9.77;68.01;100900.06;116823;1187;21893;-75
2021/10/17 03:52:38;;;;;;;21.30;13.70;;;;;;;9.77;68.01;100902.08;116832;1189;21904;-76
2021/10/17 03:55:09;;;;;;;18.30;12.00;;;;;;;9.76;68.07;100897.61;116711;1190;21895;-75
2021/10/17 03:57:38;;;;;;;21.50;12.90;;;;;;;9.78;68.05;100898.29;116805;1190;21908;-75
2021/10/17 04:00:08;;;;;;;22.80;14.00;;;;;;;9.80;68.11;100899.84;116768;1191;21896;-75
2021/10/17 04:02:42;;;;;;;20.30;13.10;;;;;;;9.81;67.79;100897.24;116627;1191;21883;-76
2021/10/17 04:05:14;;;;;;;18.40;11.80;;;;;;;9.76;67.49;100892.27;116553;1191;21948;-76
2021/10/17 04:07:43;;;;;;;19.90;13.00;;;;;;;9.69;67.57;100892.96;116744;1192;24148;-76
2021/10/17 04:10:12;;;;;;;17.90;11.90;;;;;;;9.69;67.89;100895.56;116629;1192;22854;-75
2021/10/17 04:12:42;;;;;;;21.20;13.00;;;;;;;9.72;67.98;100894.11;116544;1189;23531;-75
2021/10/17 04:15:11;;;;;;;24.10;13.50;;;;;;;9.73;67.69;100894.48;117126;1188;22928;-74
2021/10/17 04:17:45;;;;;;;23.80;13.40;;;;;;;9.74;67.80;100893.08;117034;1189;21938;-72
2021/10/17 04:20:14;;;;;;;20.60;12.60;;;;;;;9.73;67.76;100893.70;116860;1187;21899;-74
2021/10/17 04:22:43;;;;;;;15.90;11.50;;;;;;;9.68;67.54;100889.08;116927;1189;23462;-73
2021/10/17 04:25:13;;;;;;;23.40;12.60;;;;;;;9.63;67.55;100883.52;116818;1189;23669;-74
2021/10/17 04:27:42;;;;;;;17.60;12.20;;;;;;;9.64;67.82;100885.18;116803;1188;21896;-75
2021/10/17 04:30:13;;;;;;;18.20;13.00;;;;;;;9.68;68.07;100879.89;116990;1189;22899;-74
2021/10/17 04:32:44;;;;;;;19.90;12.60;;;;;;;9.71;67.92;100878.56;116845;1189;21885;-76
2021/10/17 04:35:14;;;;;;;18.40;12.70;;;;;;;9.71;67.86;100878.20;116874;1189;21887;-75
2021/10/17 04:37:44;;;;;;;18.60;13.00;;;;;;;9.73;67.90;100880.96;116987;1189;21889;-75
2021/10/17 04:40:14;;;;;;;19.00;12.60;;;;;;;9.77;67.77;100886.41;116515;1192;22129;-75
2021/10/17 04:42:44;;;;;;;21.40;13.30;;;;;;;9.80;67.80;100882.08;116543;1187;22350;-76
2021/10/17 04:45:13;;;;;;;18.10;12.70;;;;;;;9.79;67.51;100881.38;116689;1190;21908;-74
2021/10/17 04:47:42;;;;;;;19.00;13.00;;;;;;;9.77;67.35;100880.20;116502;1190;22662;-75
2021/10/17 04:50:11;;;;;;;20.40;13.30;;;;;;;9.77;67.31;100878.00;116515;1193;24201;-75
2021/10/17 04:52:40;;;;;;;21.30;12.50;;;;;;;9.74;67.14;100880.84;116498;1193;22930;-76
2021/10/17 04:55:10;;;;;;;18.30;13.50;;;;;;;9.73;67.12;100891.19;116204;1196;21900;-75
2021/10/17 04:57:41;;;;;;;22.90;14.00;;;;;;;9.72;66.94;100896.16;116184;1195;23604;-77
2021/10/17 05:00:13;;;;;;;21.50;16.20;;;;;;;9.72;66.85;100891.28;116451;1195;21881;-76
2021/10/17 05:02:54;;;;;;;21.70;15.50;;;;;;;9.70;66.64;100889.73;116354;1192;21900;-76
2021/10/17 05:05:25;;;;;;;20.60;14.50;;;;;;;9.68;66.71;100890.21;116415;1193;22058;-79
2021/10/17 05:07:56;;;;;;;25.60;13.90;;;;;;;9.69;66.75;100885.64;116195;1196;23675;-74
2021/10/17 05:10:26;;;;;;;23.40;14.80;;;;;;;9.69;66.77;100890.33;116155;1193;24133;-75
2021/10/17 05:12:56;;;;;;;20.00;13.30;;;;;;;9.71;66.79;100891.40;116238;1196;22099;-73
2021/10/17 05:15:25;;;;;;;26.50;14.20;;;;;;;9.72;66.81;100893.41;116321;1193;21962;-74
2021/10/17 05:17:54;;;;;;;19.90;14.30;;;;;;;9.70;66.80;100898.50;116641;1192;21889;-74
2021/10/17 05:20:25;;;;;;;23.30;15.00;;;;;;;9.68;66.84;100895.38;116508;1193;21920;-74
2021/10/17 05:23:00;;;;;;;22.00;14.60;;;;;;;9.66;66.82;100898.56;116437;1195;21912;-74
2021/10/17 05:25:30;;;;;;;24.60;17.20;;;;;;;9.65;66.94;100894.63;116368;1192;23370;-74
2021/10/17 05:27:59;;;;;;;26.60;17.50;;;;;;;9.65;66.94;100895.48;116725;1192;21990;-74
2021/10/17 05:30:28;;;;;;;26.50;16.80;;;;;;;9.63;66.83;100893.91;116728;1192;22982;-74
2021/10/17 05:32:58;;;;;;;24.50;16.00;;;;;;;9.60;66.64;100892.63;116814;1192;23539;-74
2021/10/17 05:35:27;;;;;;;23.90;15.60;;;;;;;9.54;66.57;100894.14;116828;1187;23566;-74
2021/10/17 05:37:57;;;;;;;28.70;16.70;;;;;;;9.48;66.70;100895.53;116788;1189;21902;-74
2021/10/17 05:40:27;;;;;;;28.60;17.00;;;;;;;9.43;66.77;100903.58;116795;1189;21893;-75
2021/10/17 05:42:57;;;;;;;31.20;18.60;;;;;;;9.41;67.07;100907.22;117057;1188;24330;-76
2021/10/17 05:45:31;;;;;;;26.40;17.30;;;;;;;9.45;67.22;100905.38;116849;1188;21892;-76
2021/10/17 05:48:00;;;;;;;31.00;17.30;;;;;;;9.47;67.20;100909.17;116889;1189;22529;-75
2021/10/17 05:50:32;;;;;;;25.90;14.70;;;;;;;9.51;67.18;100912.64;116481;1191;21889;-75
2021/10/17 05:53:07;;;;;;;20.30;12.80;;;;;;;9.53;67.12;100911.91;116721;1192;23469;-75
2021/10/17 05:55:38;;;;;;;29.90;15.60;;;;;;;9.55;66.83;100913.84;116746;1192;21988;-74
2021/10/17 05:58:14;;;;;;;22.20;14.90;;;;;;;9.57;66.81;100913.16;116765;1191;22588;-74
2021/10/17 06:00:46;;;;;;;20.90;15.00;;;;;;;9.58;66.60;100912.55;116770;1179;22967;-73
2021/10/17 06:03:16;;;;;;;23.40;15.70;;;;;;;9.57;66.57;100913.98;116413;1194;21909;-75
2021/10/17 06:06:05;;;;;;;23.10;16.70;;;;;;;9.59;66.54;100911.38;116356;1192;21905;-75
2021/10/17 06:08:36;;;;;;;30.10;17.30;;;;;;;9.60;66.33;100910.41;116524;1192;23135;-74
2021/10/17 06:11:06;;;;;;;29.90;19.30;;;;;;;9.58;66.07;100914.96;116373;1195;21902;-74
2021/10/17 06:13:35;;;;;;;26.60;17.20;;;;;;;9.58;66.08;100916.05;116434;1195;21993;-74
2021/10/17 06:16:05;;;;;;;26.50;17.80;;;;;;;9.60;66.19;100917.76;116426;1193;22757;-74
2021/10/17 06:18:34;;;;;;;26.90;18.10;;;;;;;9.65;66.08;100913.79;116430;1193;24237;-74
2021/10/17 06:21:07;;;;;;;28.90;17.90;;;;;;;9.68;65.84;100918.20;116148;1198;22397;-74
2021/10/17 06:23:37;;;;;;;25.70;16.90;;;;;;;9.69;65.49;100918.36;115882;1201;23184;-74
2021/10/17 06:26:06;;;;;;;24.80;17.80;;;;;;;9.68;65.38;100914.89;115983;1200;21910;-74
2021/10/17 06:28:36;;;;;;;24.30;16.20;;;;;;;9.71;65.40;100918.96;116074;1197;21930;-74
2021/10/17 06:31:06;;;;;;;21.40;16.00;;;;;;;9.75;65.15;100924.60;116233;1198;21900;-74
2021/10/17 06:33:43;;;;;;;22.20;15.90;;;;;;;9.77;64.85;100922.04;116232;1193;21960;-74
2021/10/17 06:36:13;;;;;;;22.30;15.80;;;;;;;9.81;64.70;100920.77;116088;1197;21909;-74
2021/10/17 06:38:43;;;;;;;26.70;17.20;;;;;;;9.85;64.36;100923.07;116227;1196;23448;-77
2021/10/17 06:41:13;;;;;;;26.80;14.10;;;;;;;9.88;64.06;100922.27;116388;1192;23480;-77
2021/10/17 06:43:43;;;;;;;24.50;15.70;;;;;;;9.90;63.89;100923.13;116536;1190;21896;-74
2021/10/17 06:46:18;;;;;;;31.50;19.50;;;;;;;9.93;63.83;100923.48;116628;1192;21906;-74
2021/10/17 06:48:52;;;;;;;27.70;18.70;;;;;;;9.96;63.39;100920.95;116540;1192;22018;-74
2021/10/17 06:51:25;;;;;;;25.90;16.00;;;;;;;10.00;63.33;100925.30;116358;1193;22097;-74
2021/10/17 06:53:54;;;;;;;27.00;17.60;;;;;;;10.05;63.12;100922.16;116360;1192;21899;-74
2021/10/17 06:56:24;;;;;;;21.00;14.80;;;;;;;10.11;62.85;100926.17;116522;1192;21898;-74
2021/10/17 06:59:03;;;;;;;35.50;14.70;;;;;;;10.13;62.59;100923.55;116584;1192;24202;-76
2021/10/17 07:01:35;;;;;;;20.90;14.50;;;;;;;10.13;62.39;100928.92;116551;1190;21894;-75
2021/10/17 07:04:05;;;;;;;18.70;12.90;;;;;;;10.14;62.02;100931.35;116577;1192;21904;-76
2021/10/17 07:06:44;;;;;;;23.00;12.80;;;;;;;10.14;61.93;100931.80;116589;1192;21895;-75
2021/10/17 07:09:20;;;;;;;17.20;12.50;;;;;;;10.17;61.88;100931.94;116614;1192;21920;-75
2021/10/17 07:11:56;;;;;;;21.70;13.80;;;;;;;10.23;61.83;100937.02;116730;1192;22227;-75
2021/10/17 07:14:27;;;;;;;27.60;15.20;;;;;;;10.28;61.51;100938.79;116306;1195;23027;-74
2021/10/17 07:17:19;;;;;;;27.70;15.60;;;;;;;10.32;61.21;100938.20;116512;1192;21909;-75
2021/10/17 07:19:49;;;;;;;26.80;14.80;;;;;;;10.38;61.11;100939.44;116431;1192;21948;-74
2021/10/17 07:22:18;;;;;;;22.60;17.20;;;;;;;10.43;60.92;100943.15;116441;1194;21956;-74
2021/10/17 07:24:49;;;;;;;21.90;16.30;;;;;;;10.47;60.65;100944.17;116360;1192;21908;-74
2021/10/17 07:27:18;;;;;;;28.40;20.20;;;;;;;10.47;60.28;100941.69;116452;1195;21921;-75
2021/10/17 07:29:48;;;;;;;24.40;17.00;;;;;;;10.48;60.09;100944.55;116279;1189;21903;-75
2021/10/17 07:32:17;;;;;;;27.60;17.90;;;;;;;10.49;59.92;100946.73;116490;1187;21902;-75
2021/10/17 07:34:46;;;;;;;39.80;30.70;;;;;;;10.51;59.69;100947.31;116721;1192;22363;-75
2021/10/17 07:37:17;;;;;;;21.70;15.10;;;;;;;10.52;59.56;100944.13;116723;1190;22662;-75
2021/10/17 07:39:48;;;;;;;19.80;13.60;;;;;;;10.55;59.53;100947.38;116460;1193;21920;-75
2021/10/17 07:42:19;;;;;;;20.90;14.50;;;;;;;10.57;59.17;100941.75;116588;1179;22948;-75
2021/10/17 07:44:50;;;;;;;31.50;24.80;;;;;;;10.59;59.00;100945.06;116689;1188;21893;-75
2021/10/17 07:47:23;;;;;;;29.50;15.70;;;;;;;10.63;59.12;100945.66;116761;1184;22202;-76
2021/10/17 07:50:02;;;;;;;18.70;12.50;;;;;;;10.66;58.67;100944.14;116430;1195;21921;-75
2021/10/17 07:52:34;;;;;;;19.50;12.00;;;;;;;10.67;58.36;100939.71;116334;1195;21944;-75
2021/10/17 07:55:08;;;;;;;19.40;12.20;;;;;;;10.68;58.13;100945.23;116333;1193;22881;-74
2021/10/17 07:57:58;;;;;;;22.40;17.10;;;;;;;10.70;58.12;100940.07;116371;1195;21939;-75
2021/10/17 08:00:35;;;;;;;25.10;18.40;;;;;;;10.76;58.01;100932.78;116447;1182;21911;-75
2021/10/17 08:03:22;;;;;;;25.90;16.30;;;;;;;10.81;57.65;100931.75;116238;1196;23474;-75
2021/10/17 08:06:02;;;;;;;20.40;16.70;;;;;;;10.84;57.55;100935.14;115963;1200;22151;-75
2021/10/17 08:08:34;;;;;;;24.70;17.30;;;;;;;10.90;57.43;100931.15;116091;1196;21912;-75
2021/10/17 08:11:03;;;;;;;22.50;17.10;;;;;;;10.97;57.19;100931.52;116171;1198;23720;-75
2021/10/17 08:13:33;;;;;;;19.90;16.70;;;;;;;11.04;57.10;100935.42;116401;1194;22024;-74
2021/10/17 08:16:03;;;;;;;17.70;14.30;;;;;;;11.10;56.99;100936.39;116398;1195;22662;-75
2021/10/17 08:18:37;;;;;;;22.70;14.60;;;;;;;11.15;56.75;100941.17;116216;1197;21948;-75
2021/10/17 08:21:07;;;;;;;21.10;14.70;;;;;;;11.18;56.50;100943.71;116252;1195;22647;-74
2021/10/17 08:23:40;;;;;;;22.30;16.20;;;;;;;11.21;56.34;100942.13;116503;1192;21902;-74
2021/10/17 08:26:10;;;;;;;34.80;28.60;;;;;;;11.24;56.19;100943.92;116726;1192;22114;-74
2021/10/17 08:28:42;;;;;;;24.50;17.50;;;;;;;11.25;55.94;100945.55;116888;1191;23885;-74
2021/10/17 08:31:20;;;;;;;22.90;18.70;;;;;;;11.27;55.81;100942.66;116693;1192;22888;-74
2021/10/17 08:33:50;;;;;;;27.70;22.30;;;;;;;11.31;55.87;100946.18;116424;1193;22295;-74
2021/10/17 08:36:29;;;;;;;32.60;23.40;;;;;;;11.36;55.95;100950.58;116533;1192;22218;-75
2021/10/17 08:39:38;;;;;;;28.80;20.50;;;;;;;11.43;56.11;100948.79;116668;1184;22969;-75
2021/10/17 08:42:08;;;;;;;24.50;19.30;;;;;;;11.48;55.79;100946.89;116803;1192;21902;-75
2021/10/17 08:44:57;;;;;;;26.60;18.60;;;;;;;11.49;55.62;100948.15;116728;1192;21925;-75
2021/10/17 08:47:27;;;;;;;25.80;20.90;;;;;;;11.47;55.54;100946.52;116707;1192;21908;-75
2021/10/17 08:49:57;;;;;;;32.60;24.00;;;;;;;11.51;55.97;100946.91;116635;1192;22930;-77
2021/10/17 08:52:26;;;;;;;27.80;21.00;;;;;;;11.59;56.08;100946.34;116884;1189;22031;-76
2021/10/17 08:54:59;;;;;;;26.10;19.10;;;;;;;11.66;55.97;100944.18;117007;1188;23621;-75
2021/10/17 08:57:29;;;;;;;26.50;16.60;;;;;;;11.69;55.74;100938.14;117107;1189;21893;-76
2021/10/17 09:00:00;;;;;;;21.70;16.60;;;;;;;11.74;55.58;100941.71;116837;1189;23538;-76
2021/10/17 09:02:43;;;;;;;21.00;14.00;;;;;;;11.77;55.14;100944.08;117164;1188;23416;-75
2021/10/17 09:05:13;;;;;;;26.80;19.30;;;;;;;11.77;54.89;100943.19;116942;1189;21891;-75
2021/10/17 09:07:53;;;;;;;27.80;17.90;;;;;;;11.77;54.76;100942.46;116925;1189;22740;-75
2021/10/17 09:10:37;;;;;;;23.90;18.60;;;;;;;11.76;54.42;100944.19;117107;1189;22938;-75
2021/10/17 09:13:15;;;;;;;25.70;17.30;;;;;;;11.74;54.38;100944.21;116900;1189;21901;-75
2021/10/17 09:15:45;;;;;;;23.20;16.20;;;;;;;11.74;54.35;100938.23;117033;1188;23021;-76
2021/10/17 09:18:20;;;;;;;25.90;20.40;;;;;;;11.70;53.91;100935.79;117107;1189;23491;-76
2021/10/17 09:20:59;;;;;;;28.50;21.00;;;;;;;11.66;54.09;100933.40;116890;1189;22173;-75
2021/10/17 09:23:28;;;;;;;25.30;15.70;;;;;;;11.67;54.27;100936.28;116948;1185;21909;-75
2021/10/17 09:26:07;;;;;;;25.00;20.50;;;;;;;11.72;54.29;100938.25;117073;1189;21890;-76
2021/10/17 09:28:37;;;;;;;25.50;17.70;;;;;;;11.73;54.13;100939.84;116833;1189;21895;-75
2021/10/17 09:31:16;;;;;;;23.80;16.60;;;;;;;11.76;54.08;100942.00;117043;1187;22917;-74
2021/10/17 09:33:55;;;;;;;22.20;15.50;;;;;;;11.78;53.74;100938.54;116808;1191;23302;-75
2021/10/17 09:36:32;;;;;;;26.10;15.60;;;;;;;11.79;53.66;100937.37;116761;1190;21903;-75
2021/10/17 09:39:17;;;;;;;21.00;17.70;;;;;;;11.80;53.39;100938.50;116559;1192;23530;-75
2021/10/17 09:42:07;;;;;;;22.30;17.10;;;;;;;11.71;53.26;100935.11;116568;1192;22347;-75
2021/10/17 09:44:44;;;;;;;24.00;16.80;;;;;;;11.69;53.59;100932.58;116328;1194;24141;-76
2021/10/17 09:47:14;;;;;;;26.60;18.90;;;;;;;11.72;53.71;100930.30;116411;1190;21881;-75
2021/10/17 09:49:46;;;;;;;28.10;20.80;;;;;;;11.80;53.94;100931.23;116511;1190;22436;-75
2021/10/17 09:52:23;;;;;;;23.30;20.30;;;;;;;11.88;53.94;100931.63;116418;1193;23518;-75
2021/10/17 09:55:12;;;;;;;27.90;21.70;;;;;;;11.94;53.77;100930.98;116499;1195;21968;-76
2021/10/17 09:57:42;;;;;;;24.30;20.20;;;;;;;12.02;53.83;100931.27;116270;1193;21899;-76
2021/10/17 10:00:12;;;;;;;27.80;19.80;;;;;;;12.06;53.55;100928.14;116437;1195;21886;-76
2021/10/17 10:02:52;;;;;;;21.70;16.40;;;;;;;12.08;53.34;100925.85;116499;1192;23497;-76
2021/10/17 10:05:28;;;;;;;23.70;17.40;;;;;;;12.08;53.20;100926.19;116619;1192;23543;-76
2021/10/17 10:08:03;;;;;;;27.10;18.80;;;;;;;12.08;53.12;100923.16;116658;1192;21886;-76
2021/10/17 10:10:34;;;;;;;26.90;20.50;;;;;;;12.11;53.33;100925.67;116525;1192;22954;-76
2021/10/17 10:13:05;;;;;;;26.20;19.10;;;;;;;12.14;53.49;100926.36;116653;1189;22069;-76
2021/10/17 10:15:35;;;;;;;27.30;16.20;;;;;;;12.15;53.30;100924.11;116907;1188;21886;-75
2021/10/17 10:18:11;;;;;;;22.10;14.70;;;;;;;12.11;52.82;100921.06;117071;1189;21890;-75
2021/10/17 10:20:42;;;;;;;21.00;16.30;;;;;;;12.12;53.22;100920.98;116960;1186;21884;-76
2021/10/17 10:23:12;;;;;;;24.50;19.70;;;;;;;12.11;52.91;100923.73;116778;1192;21916;-75
2021/10/17 10:25:42;;;;;;;22.80;18.20;;;;;;;12.04;52.74;100920.41;116437;1193;23614;-75
2021/10/17 10:28:14;;;;;;;22.90;14.90;;;;;;;12.05;53.21;100918.55;116460;1190;21884;-75
2021/10/17 10:30:43;;;;;;;23.70;17.10;;;;;;;12.09;53.37;100919.01;116502;1194;22937;-75
2021/10/17 10:33:21;;;;;;;20.30;14.80;;;;;;;12.10;53.14;100913.94;116274;1192;23551;-76
2021/10/17 10:36:17;;;;;;;24.60;17.20;;;;;;;12.06;52.85;100913.69;116223;1194;21900;-75
2021/10/17 10:38:52;;;;;;;24.20;16.60;;;;;;;12.05;53.32;100913.04;116199;1196;21917;-74
2021/10/17 10:41:28;;;;;;;21.90;16.60;;;;;;;12.09;53.39;100912.69;116387;1195;22914;-75
2021/10/17 10:44:23;;;;;;;24.90;18.10;;;;;;;12.13;53.40;100912.38;116510;1184;21906;-75
2021/10/17 10:46:56;;;;;;;22.00;16.80;;;;;;;12.15;53.22;100916.95;116728;1192;21897;-75
2021/10/17 10:49:47;;;;;;;20.90;16.00;;;;;;;12.15;53.29;100917.08;116511;1192;22640;-75
2021/10/17 10:52:28;;;;;;;24.80;16.60;;;;;;;12.18;53.20;100914.16;116662;1189;22347;-75
2021/10/17 10:55:08;;;;;;;23.50;16.50;;;;;;;12.19;53.41;100914.67;116908;1189;21905;-75
2021/10/17 10:57:47;;;;;;;20.70;15.50;;;;;;;12.24;53.56;100915.58;116817;1189;21902;-75
2021/10/17 11:00:19;;;;;;;23.80;18.40;;;;;;;12.29;53.37;100916.33;116978;1189;22891;-75
2021/10/17 11:03:16;;;;;;;23.40;15.40;;;;;;;12.28;53.29;100917.48;116856;1189;22909;-75
2021/10/17 11:06:04;;;;;;;21.00;15.50;;;;;;;12.30;53.57;100912.20;116880;1190;21869;-75
2021/10/17 11:08:34;;;;;;;19.40;15.20;;;;;;;12.34;53.38;100910.73;116883;1189;21878;-74
2021/10/17 11:11:04;;;;;;;18.90;14.70;;;;;;;12.31;52.95;100910.61;116935;1190;21900;-74
2021/10/17 11:13:40;;;;;;;20.40;15.80;;;;;;;12.21;52.55;100905.51;116903;1189;21898;-75
2021/10/17 11:16:22;;;;;;;20.50;15.20;;;;;;;12.11;52.67;100904.66;116879;1188;23366;-74
2021/10/17 11:18:59;;;;;;;22.70;16.30;;;;;;;12.02;53.10;100901.02;117097;1189;22820;-74
2021/10/17 11:21:30;;;;;;;24.70;16.80;;;;;;;11.96;53.33;100902.20;116997;1189;22362;-75
2021/10/17 11:24:00;;;;;;;27.00;18.80;;;;;;;11.90;53.50;100898.91;117076;1189;21907;-75
2021/10/17 11:26:33;;;;;;;27.70;19.60;;;;;;;11.89;53.83;100895.94;116903;1192;21998;-75
2021/10/17 11:29:03;;;;;;;24.70;16.90;;;;;;;11.89;53.89;100896.23;116715;1192;22986;-74
2021/10/17 11:31:33;;;;;;;28.10;19.80;;;;;;;11.90;54.11;100895.24;116747;1192;21907;-75